• Join FlightAware (Why Join?)
  • Login
  • US Flag 
11:25AM EST


 

Airport Tracker/Info


-or-


 

Live Flight TrackerFlight Track Log ✈ N9505E ✈ 29-Apr-2013 ✈ KTUS - KSAF

Flight Track Log - Related Links

Times and Time Zones

All times are in EDT time to prevent confusion due to time zone crossing. See the N9505E flight status page for this flight to view local times or setup timezone preferences in your user account.

Time Position Orientation Groundspeed Altitude Reporting Facility
EDT Latitude Longitude Course Direction KTS MPH feet Rate Location/Type
02:06PM 32.1150 -110.8964 48° Northeast 104 120 3,800  Level Albuquerque Center
02:06PM 32.1353 -110.8683 50° Northeast 139 160 3,900  Climbing Albuquerque Center
02:07PM 32.1592 -110.8264 56° Northeast 155 178 3,800  Descending Albuquerque Center
02:08PM 32.1881 -110.7883 48° Northeast 153 176 4,000 540 Climbing Albuquerque Center
02:09PM 32.2078 -110.7578 53° Northeast 122 140 4,900 720 Climbing Albuquerque Center
02:10PM 32.2493 -110.7679 48° Northeast  Level Estimated
02:11PM 32.2715 -110.7390 48° Northeast  Level Estimated
02:11PM 32.2375 -110.7244 43° Northeast 117 135 5,700  Level Albuquerque Center
02:12PM 32.2639 -110.6944 44° Northeast 119 137 6,300 540 Climbing Albuquerque Center
02:13PM 32.2900 -110.6647 44° Northeast 123 142 6,900 1,800 Climbing Albuquerque Center
02:13PM 32.3075 -110.6447 44° Northeast 127 146 9,500 420 Climbing Albuquerque Center
02:15PM 32.3414 -110.6103 41° Northeast 130 150 7,800 -720 Descending Albuquerque Center
02:15PM 32.3661 -110.5856 40° Northeast 145 167 8,100 420 Climbing Albuquerque Center
02:17PM 32.3953 -110.5567 40° Northeast 140 161 8,700 420 Climbing Albuquerque Center
02:18PM 32.4217 -110.5308 40° Northeast 135 155 9,000 300 Climbing Albuquerque Center
02:19PM 32.4472 -110.5042 41° Northeast 130 150 9,400 240 Climbing Albuquerque Center
02:20PM 32.4761 -110.4669 47° Northeast 127 146 9,600 60 Climbing Albuquerque Center
02:21PM 32.5028 -110.4306 49° Northeast 132 152 9,600  Level Albuquerque Center
02:22PM 32.5314 -110.3914 49° Northeast 139 160 9,600 -60 Level Albuquerque Center
02:23PM 32.5625 -110.3492 49° Northeast 146 168 9,500 -60 Descending Albuquerque Center
02:25PM 32.6017 -110.2962 49° Northeast  Level FlightAware Approximate
02:26PM 32.6569 -110.2228 49° Northeast 162 186 9,500  Level Albuquerque Center
02:27PM 32.6881 -110.1839 46° Northeast 163 188 9,400  Descending Albuquerque Center
02:28PM 32.7214 -110.1400 48° Northeast 156 180 9,600  Climbing Albuquerque Center
02:29PM 32.7475 -110.1042 49° Northeast 151 174 9,500  Descending Albuquerque Center
02:30PM 32.7739 -110.0689 48° Northeast 147 169 9,600  Climbing Albuquerque Center
02:31PM 32.8028 -110.0308 48° Northeast 150 173 9,600  Level Albuquerque Center
02:32PM 32.7539 -110.0895 49° Northeast  Level FlightAware Approximate
02:32PM 32.8317 -109.9931 48° Northeast 153 176 9,600  Level Albuquerque Center
02:33PM 32.8636 -109.9506 48° Northeast 150 173 9,600  Level Albuquerque Center
02:34PM 32.8900 -109.9144 49° Northeast 147 169 9,600  Level Albuquerque Center
02:35PM 32.9172 -109.8775 49° Northeast 147 169 9,600  Level Albuquerque Center
02:37PM 32.9439 -109.8403 50° Northeast 148 170 9,600  Level Albuquerque Center
02:38PM 32.9719 -109.8042 47° Northeast 149 171 9,600  Level Albuquerque Center
02:39PM 32.9992 -109.7678 48° Northeast 149 171 9,600  Level Albuquerque Center
02:40PM 33.0325 -109.7253 47° Northeast 148 170 9,600  Level Albuquerque Center
02:41PM 33.0611 -109.6914 45° Northeast 147 169 9,600 -60 Level Albuquerque Center
02:42PM 33.0897 -109.6581 44° Northeast 145 167 9,500  Descending Albuquerque Center
02:43PM 33.1183 -109.6242 45° Northeast 145 167 9,600  Climbing Albuquerque Center
02:44PM 33.1436 -109.5889 49° Northeast 144 166 9,500  Descending Albuquerque Center
02:45PM 33.1689 -109.5528 50° Northeast 142 163 9,700 420 Climbing Albuquerque Center
02:46PM 33.1994 -109.5131 47° Northeast 140 161 10,400 480 Climbing Albuquerque Center
02:47PM 33.2236 -109.4828 46° Northeast 134 154 10,700 240 Climbing Albuquerque Center
02:48PM 33.2439 -109.4522 52° Northeast 127 146 11,000 300 Climbing Albuquerque Center
02:49PM 33.2664 -109.4231 47° Northeast 123 142 11,400 240 Climbing Albuquerque Center
02:50PM 33.2911 -109.3914 47° Northeast 124 143 11,600 60 Climbing Albuquerque Center
02:51PM 33.3244 -109.3503 46° Northeast 134 154 11,600  Level Albuquerque Center
02:52PM 33.3542 -109.3122 47° Northeast 145 167 11,600 -60 Level Albuquerque Center
02:53PM 33.3836 -109.2753 46° Northeast 152 175 11,500  Descending Albuquerque Center
02:54PM 33.4103 -109.2431 45° Northeast 146 168 11,700  Climbing Albuquerque Center
02:55PM 33.4386 -109.2069 47° Northeast 146 168 11,600 -60 Descending Albuquerque Center
02:56PM 33.4636 -109.1675 53° Northeast 147 169 11,600  Level Albuquerque Center
02:57PM 33.4925 -109.1197 54° Northeast 148 170 11,600  Level Albuquerque Center
02:58PM 33.5192 -109.0819 50° Northeast 149 171 11,700 60 Climbing Albuquerque Center
02:59PM 33.5478 -109.0422 49° Northeast 152 175 11,800 -120 Climbing Albuquerque Center
03:00PM 33.5761 -109.0011 50° Northeast 157 181 11,500 -120 Descending Albuquerque Center
03:01PM 33.6031 -108.9642 49° Northeast 154 177 11,600  Climbing Albuquerque Center
03:02PM 33.6347 -108.9183 50° Northeast 151 174 11,500 -60 Descending Albuquerque Center
03:03PM 33.6594 -108.8842 49° Northeast 145 167 11,500  Level Albuquerque Center
03:04PM 33.6819 -108.8525 50° Northeast 136 157 11,600  Climbing Albuquerque Center
03:05PM 33.7050 -108.8197 50° Northeast 132 152 11,600 -60 Level Albuquerque Center
03:06PM 33.7303 -108.7844 49° Northeast 135 155 11,500  Descending Albuquerque Center
03:07PM 33.7550 -108.7489 50° Northeast 137 158 11,600  Climbing Albuquerque Center
03:08PM 33.7869 -108.7039 49° Northeast 143 165 11,500 -60 Descending Albuquerque Center
03:10PM 33.8094 -108.6722 49° Northeast 137 158 11,500 180 Level Albuquerque Center
03:11PM 33.8358 -108.6419 44° Northeast 133 153 11,900  Climbing Albuquerque Center
03:12PM 33.8653 -108.6025 48° Northeast 144 166 11,600 -180 Descending Albuquerque Center
03:13PM 33.8933 -108.5597 52° Northeast 154 177 11,600  Level Albuquerque Center
03:14PM 33.9247 -108.5136 51° Northeast 153 176 11,600  Level Albuquerque Center
03:16PM 33.9667 -108.4552 49° Northeast  Level FlightAware Approximate
03:23PM 34.1238 -108.2354 49° Northeast  Level FlightAware Approximate
03:23PM 34.1753 -108.1536 49° Northeast 114 131 11,600  Level Albuquerque Center
03:24PM 34.1463 -108.2040 49° Northeast  Level FlightAware Approximate
03:24PM 34.2022 -108.1194 46° Northeast 137 158 11,500  Level Albuquerque Center
03:25PM 34.1687 -108.1725 49° Northeast  Level FlightAware Approximate
03:25PM 34.2286 -108.0864 46° Northeast 138 159 11,600  Level Albuquerque Center
03:26PM 34.1911 -108.1410 49° Northeast  Level FlightAware Approximate
03:26PM 34.2564 -108.0506 47° Northeast 141 162 11,600  Level Albuquerque Center
03:27PM 34.2135 -108.1095 49° Northeast  Level FlightAware Approximate
03:27PM 34.2886 -108.0158 42° Northeast 149 171 11,600  Level Albuquerque Center
03:28PM 34.2358 -108.0780 49° Northeast  Level FlightAware Approximate
03:28PM 34.3194 -107.9861 39° Northeast 146 168 11,500  Level Albuquerque Center
03:29PM 34.2582 -108.0464 49° Northeast  Level FlightAware Approximate
03:30PM 34.3603 -107.9567 31° Northeast 143 165 11,600  Level Albuquerque Center
03:31PM 34.3931 -107.9383 25° Northeast 136 157 11,700  Climbing Albuquerque Center
03:32PM 34.4225 -107.9047 43° Northeast 139 160 11,600  Descending Albuquerque Center
03:33PM 34.4458 -107.8661 54° Northeast 143 165 11,800  Climbing Albuquerque Center
03:34PM 34.4700 -107.8242 55° Northeast 146 168 11,600 -60 Descending Albuquerque Center
03:35PM 34.4992 -107.7811 51° Northeast 155 178 11,700 -60 Climbing Albuquerque Center
03:36PM 34.5286 -107.7372 51° Northeast 163 188 11,500  Descending Albuquerque Center
03:37PM 34.5592 -107.6875 53° Northeast 158 182 11,800 60 Climbing Albuquerque Center
03:38PM 34.5856 -107.6433 54° Northeast 159 183 11,700 -60 Descending Albuquerque Center
03:39PM 34.6111 -107.5958 57° Northeast 163 188 11,700 -180 Level Albuquerque Center
03:40PM 34.6369 -107.5514 55° Northeast 164 189 11,400 -180 Descending Albuquerque Center
03:40PM 34.6453 -107.5381 53° Northeast 145 167 11,500 180 Climbing Albuquerque Center
03:41PM 34.6578 -107.5147 57° Northeast 146 168 11,600  Climbing Albuquerque Center
03:42PM 34.6892 -107.4575 56° Northeast 147 169 11,600 120 Level Albuquerque Center
03:43PM 34.7042 -107.4342 52° Northeast 144 166 11,900 180 Climbing Albuquerque Center
03:43PM 34.7175 -107.4119 54° Northeast 156 180 11,800 -420 Descending Albuquerque Center
03:44PM 34.7347 -107.3786 58° Northeast 155 178 11,500 -240 Descending Albuquerque Center
03:45PM 34.7617 -107.3378 51° Northeast 157 181 11,400 60 Descending Albuquerque Center
03:45PM 34.7683 -107.3219 63° Northeast 150 173 11,600  Climbing Albuquerque Center
03:46PM 34.7853 -107.2969 50° Northeast 148 170 11,400  Descending Albuquerque Center
03:46PM 34.7936 -107.2819 56° Northeast 148 170 11,600 240 Climbing Albuquerque Center
03:47PM 34.8086 -107.2544 56° Northeast 150 173 11,700 -120 Climbing Albuquerque Center
03:47PM 34.8183 -107.2397 51° Northeast 155 178 11,500 -120 Descending Albuquerque Center
03:48PM 34.8364 -107.2122 51° Northeast 155 178 11,600 -120 Climbing Albuquerque Center
03:48PM 34.8456 -107.1992 49° Northeast 156 180 11,400 -240 Descending Albuquerque Center
03:49PM 34.8631 -107.1769 46° Northeast 151 174 11,400 60 Level Albuquerque Center
03:50PM 34.8883 -107.1431 48° Northeast 141 162 11,600 60 Climbing Albuquerque Center
03:51PM 34.9253 -107.0958 46° Northeast 150 173 11,600 -120 Level Albuquerque Center
03:51PM 34.9347 -107.0839 46° Northeast 170 196 11,500 -300 Descending Albuquerque Center
03:52PM 34.9547 -107.0561 49° Northeast 156 180 11,300 -120 Descending Albuquerque Center
03:52PM 34.9606 -107.0489 45° Northeast 140 161 11,400 360 Climbing Albuquerque Center
03:53PM 34.9778 -107.0244 49° Northeast 140 161 11,700 360 Climbing Albuquerque Center
03:53PM 34.9867 -107.0139 44° Northeast 141 162 11,800 -240 Climbing Albuquerque Center
03:54PM 35.0086 -106.9872 45° Northeast 145 167 11,500 -240 Descending Albuquerque Center
03:55PM 35.0397 -106.9511 44° Northeast 153 176 11,400 -60 Descending Albuquerque Center
03:56PM 35.0667 -106.9153 47° Northeast 145 167 11,400 -300 Level Albuquerque Center
03:57PM 35.0978 -106.8664 52° Northeast 165 190 10,900 -420 Descending Albuquerque Center
03:58PM 35.1264 -106.8225 51° Northeast 167 192 10,600 -360 Descending Albuquerque Center
03:59PM 35.1547 -106.7764 53° Northeast 166 191 10,200 -360 Descending Albuquerque Center
04:00PM 35.1817 -106.7319 53° Northeast 168 193 9,900 -300 Descending Albuquerque Center
04:01PM 35.2103 -106.6789 57° Northeast 167 192 9,700 -300 Descending Albuquerque Center
04:03PM 35.2400 -106.6286 54° Northeast 168 193 9,300 -300 Descending Albuquerque Center
04:04PM 35.2692 -106.5836 52° Northeast 168 193 9,100 -180 Descending Albuquerque Center
04:05PM 35.2994 -106.5406 49° Northeast 168 193 9,000 -300 Descending Albuquerque Center
04:06PM 35.3292 -106.4958 51° Northeast 168 193 8,600 -300 Descending Albuquerque Center
04:07PM 35.3608 -106.4514 49° Northeast 171 197 8,400 -120 Descending Albuquerque Center
04:08PM 35.3964 -106.3983 51° Northeast 169 194 8,400  Level Albuquerque Center